createdAt,value
2023-06-17T00:01:39.994Z,14.93
2023-06-17T00:04:08.518Z,14.81
2023-06-17T00:06:36.718Z,14.59
2023-06-17T00:09:05.581Z,14.76
2023-06-17T00:11:34.065Z,14.88
2023-06-17T00:14:04.818Z,15.08
2023-06-17T00:16:38.439Z,15.22
2023-06-17T00:19:06.359Z,15.37
2023-06-17T00:21:34.903Z,15.14
2023-06-17T00:24:02.906Z,14.70
2023-06-17T00:26:31.304Z,14.37
2023-06-17T00:29:00.337Z,14.32
2023-06-17T00:31:28.436Z,14.77
2023-06-17T00:33:56.304Z,14.64
2023-06-17T00:36:24.474Z,15.18
2023-06-17T00:38:52.474Z,14.95
2023-06-17T00:41:21.034Z,14.82
2023-06-17T00:43:49.385Z,14.71
2023-06-17T00:46:38.582Z,13.83
2023-06-17T00:49:09.712Z,13.55
2023-06-17T00:51:38.136Z,13.63
2023-06-17T00:54:10.374Z,13.77
2023-06-17T00:56:43.530Z,13.69
2023-06-17T00:59:12.032Z,13.76
2023-06-17T01:01:40.022Z,13.76
2023-06-17T01:04:08.276Z,13.67
2023-06-17T01:06:46.666Z,13.83
2023-06-17T01:09:21.569Z,14.02
2023-06-17T01:11:58.637Z,14.11
2023-06-17T01:14:32.052Z,14.28
2023-06-17T01:17:05.001Z,14.44
2023-06-17T01:19:37.346Z,13.92
2023-06-17T01:22:10.078Z,13.71
2023-06-17T01:24:38.938Z,13.67
2023-06-17T01:27:07.761Z,13.69
2023-06-17T01:29:39.327Z,13.79
2023-06-17T01:32:08.407Z,13.84
2023-06-17T01:35:03.237Z,13.95
2023-06-17T01:37:42.974Z,13.89
2023-06-17T01:40:14.461Z,13.95
2023-06-17T01:42:49.160Z,13.99
2023-06-17T01:45:17.575Z,14.10
2023-06-17T01:47:46.631Z,14.07
2023-06-17T01:50:20.894Z,14.09
2023-06-17T01:52:49.688Z,14.11
2023-06-17T01:55:19.460Z,14.30
2023-06-17T01:57:48.501Z,14.32
2023-06-17T02:00:17.339Z,14.52
2023-06-17T02:02:54.728Z,14.51
2023-06-17T02:05:24.861Z,14.75
2023-06-17T02:07:58.339Z,14.64
2023-06-17T02:10:27.970Z,14.72
2023-06-17T02:13:09.668Z,14.73
2023-06-17T02:15:40.082Z,14.76
2023-06-17T02:18:08.425Z,14.87
2023-06-17T02:20:37.011Z,15.29
2023-06-17T02:23:04.947Z,15.61
2023-06-17T02:25:38.187Z,16.02
2023-06-17T02:28:07.454Z,16.30
2023-06-17T02:30:35.537Z,16.37
2023-06-17T02:33:03.634Z,16.13
2023-06-17T02:35:31.963Z,16.21
2023-06-17T02:38:03.049Z,15.93
2023-06-17T02:40:31.802Z,16.08
2023-06-17T02:43:02.840Z,16.34
2023-06-17T02:45:31.182Z,16.91
2023-06-17T02:47:59.287Z,16.79
2023-06-17T02:50:27.572Z,17.37
2023-06-17T02:52:57.444Z,18.10
2023-06-17T02:55:28.854Z,17.70
2023-06-17T02:57:58.404Z,17.42
2023-06-17T03:00:27.289Z,18.27
2023-06-17T03:02:58.197Z,18.97
2023-06-17T03:05:26.726Z,18.98
2023-06-17T03:07:54.798Z,19.10
2023-06-17T03:10:23.879Z,19.11
2023-06-17T03:12:54.068Z,19.18
2023-06-17T03:15:22.457Z,19.15
2023-06-17T03:17:50.536Z,19.31
2023-06-17T03:20:22.474Z,19.50
2023-06-17T03:22:53.925Z,19.78
2023-06-17T03:25:25.413Z,20.01
2023-06-17T03:27:54.596Z,20.08
2023-06-17T03:30:25.451Z,20.09
2023-06-17T03:32:54.688Z,20.23
2023-06-17T03:35:23.138Z,20.43
2023-06-17T03:37:51.425Z,20.72
2023-06-17T03:40:20.076Z,20.93
2023-06-17T03:42:51.615Z,21.17
2023-06-17T03:45:19.435Z,21.50
2023-06-17T03:47:48.928Z,21.69
2023-06-17T03:50:17.582Z,21.81
2023-06-17T03:52:47.054Z,21.91
2023-06-17T03:55:15.223Z,22.15
2023-06-17T03:57:44.401Z,22.48
2023-06-17T04:00:13.232Z,22.96
2023-06-17T04:02:46.954Z,23.32
2023-06-17T04:05:19.525Z,23.65
2023-06-17T04:07:48.477Z,23.99
2023-06-17T04:10:16.897Z,24.30
2023-06-17T04:12:48.102Z,24.57
2023-06-17T04:15:16.461Z,24.81
2023-06-17T04:17:47.715Z,25.13
2023-06-17T04:20:17.186Z,25.58
2023-06-17T04:22:46.066Z,25.92
2023-06-17T04:25:16.963Z,26.16
2023-06-17T04:27:45.992Z,26.43
2023-06-17T04:30:16.684Z,26.77
2023-06-17T04:32:45.087Z,27.15
2023-06-17T04:35:14.449Z,27.33
2023-06-17T04:37:44.568Z,27.58
2023-06-17T04:40:13.711Z,27.86
2023-06-17T04:42:46.745Z,28.27
2023-06-17T04:45:21.133Z,28.57
2023-06-17T04:47:53.722Z,28.86
2023-06-17T04:50:22.682Z,29.04
2023-06-17T04:52:54.648Z,29.33
2023-06-17T04:55:23.805Z,29.46
2023-06-17T04:57:54.176Z,29.73
2023-06-17T05:00:23.628Z,30.17
2023-06-17T05:02:52.872Z,30.41
2023-06-17T05:05:22.059Z,30.63
2023-06-17T05:07:50.072Z,30.95
2023-06-17T05:10:18.628Z,31.09
2023-06-17T05:12:50.068Z,31.21
2023-06-17T05:15:19.298Z,31.66
2023-06-17T05:17:47.630Z,32.08
2023-06-17T05:20:16.836Z,31.91
2023-06-17T05:22:45.509Z,32.64
2023-06-17T05:25:14.228Z,33.04
2023-06-17T05:27:42.630Z,33.44
2023-06-17T05:30:11.423Z,33.83
2023-06-17T05:32:39.964Z,34.24
2023-06-17T05:35:08.454Z,34.40
2023-06-17T05:37:36.735Z,34.69
2023-06-17T05:40:05.694Z,34.74
2023-06-17T05:42:34.457Z,35.11
2023-06-17T05:45:06.016Z,35.43
2023-06-17T05:47:34.076Z,35.59
2023-06-17T05:50:02.829Z,35.96
2023-06-17T05:52:33.553Z,35.46
2023-06-17T05:55:01.822Z,34.75
2023-06-17T05:57:31.976Z,33.06
2023-06-17T06:00:02.707Z,33.57
2023-06-17T06:02:41.856Z,35.24
2023-06-17T06:05:11.400Z,36.24
2023-06-17T06:07:42.578Z,36.85
2023-06-17T06:10:14.486Z,37.18
2023-06-17T06:12:43.054Z,37.55
2023-06-17T06:15:11.584Z,37.81
2023-06-17T06:17:42.634Z,37.95
2023-06-17T06:20:11.117Z,37.96
2023-06-17T06:22:42.738Z,38.44
2023-06-17T06:25:11.044Z,38.61
2023-06-17T06:27:42.442Z,38.74
2023-06-17T06:30:10.992Z,38.90
2023-06-17T06:32:51.926Z,39.04
2023-06-17T06:35:23.917Z,39.51
2023-06-17T06:38:20.719Z,39.74
2023-06-17T06:40:49.034Z,39.02
2023-06-17T06:43:18.317Z,40.10
2023-06-17T06:45:47.579Z,38.79
2023-06-17T06:48:19.102Z,38.39
2023-06-17T06:50:48.549Z,39.15
2023-06-17T06:53:17.550Z,38.00
2023-06-17T06:55:45.602Z,37.72
2023-06-17T06:58:14.230Z,37.19
2023-06-17T07:00:42.385Z,39.34
2023-06-17T07:03:13.590Z,40.07
2023-06-17T07:05:42.230Z,41.21
2023-06-17T07:08:22.414Z,40.93
2023-06-17T07:10:51.059Z,40.98
2023-06-17T07:13:19.434Z,39.29
2023-06-17T07:15:48.425Z,36.31
2023-06-17T07:18:17.109Z,39.97
2023-06-17T07:20:45.245Z,38.57
2023-06-17T07:23:13.700Z,40.41
2023-06-17T07:25:42.968Z,38.99
2023-06-17T07:28:11.449Z,40.50
2023-06-17T07:30:39.942Z,40.31
2023-06-17T07:33:08.675Z,38.02
2023-06-17T07:35:36.763Z,40.93
2023-06-17T07:38:04.871Z,33.64
2023-06-17T07:40:36.411Z,31.51
2023-06-17T07:43:04.601Z,32.41
2023-06-17T07:45:33.299Z,38.57
2023-06-17T07:48:02.092Z,39.26
2023-06-17T07:50:30.313Z,34.18
2023-06-17T07:52:58.680Z,38.87
2023-06-17T07:55:28.211Z,40.54
2023-06-17T07:57:56.502Z,41.50
2023-06-17T08:00:24.810Z,40.09
2023-06-17T08:02:57.056Z,42.18
2023-06-17T08:05:28.579Z,41.12
2023-06-17T08:07:57.607Z,38.21
2023-06-17T08:10:25.771Z,40.74
2023-06-17T08:12:53.843Z,41.28
2023-06-17T08:15:23.763Z,41.71
2023-06-17T08:17:54.591Z,42.57
2023-06-17T08:20:23.648Z,42.40
2023-06-17T08:22:55.236Z,41.44
2023-06-17T08:25:23.689Z,40.84
2023-06-17T08:27:52.266Z,41.96
2023-06-17T08:30:20.706Z,39.64
2023-06-17T08:33:01.562Z,40.61
2023-06-17T08:35:32.728Z,38.77
2023-06-17T08:38:05.088Z,39.08
2023-06-17T08:40:37.818Z,38.71
2023-06-17T08:43:10.722Z,42.20
2023-06-17T08:45:42.898Z,42.60
2023-06-17T08:48:11.650Z,40.36
2023-06-17T08:50:46.570Z,37.86
2023-06-17T08:53:16.667Z,32.30
2023-06-17T08:55:44.938Z,33.08
2023-06-17T08:58:13.271Z,35.61
2023-06-17T09:01:00.398Z,37.83
2023-06-17T09:03:29.386Z,41.66
2023-06-17T09:05:57.538Z,40.19
2023-06-17T09:08:28.951Z,39.31
2023-06-17T09:11:08.764Z,38.18
2023-06-17T09:13:38.210Z,37.70
2023-06-17T09:16:07.278Z,39.68
2023-06-17T09:18:36.563Z,42.92
2023-06-17T09:21:04.922Z,40.44
2023-06-17T09:23:33.620Z,41.63
2023-06-17T09:26:18.549Z,39.64
2023-06-17T09:28:47.303Z,40.98
2023-06-17T09:31:45.863Z,38.21
2023-06-17T09:34:14.739Z,42.30
2023-06-17T09:36:43.218Z,39.85
2023-06-17T09:39:16.400Z,36.14
2023-06-17T09:41:58.311Z,41.24
2023-06-17T09:44:26.252Z,40.20
2023-06-17T09:46:54.522Z,38.95
2023-06-17T09:49:25.404Z,40.16
2023-06-17T09:51:57.397Z,39.29
2023-06-17T09:54:26.408Z,37.96
2023-06-17T09:56:55.156Z,33.12
2023-06-17T09:59:24.289Z,34.55
2023-06-17T10:01:54.529Z,40.58
2023-06-17T10:04:23.138Z,38.77
2023-06-17T10:06:52.802Z,35.96
2023-06-17T10:09:33.491Z,39.21
2023-06-17T10:12:03.663Z,41.71
2023-06-17T10:14:54.037Z,42.52
2023-06-17T10:17:25.332Z,39.18
2023-06-17T10:19:54.634Z,39.63
2023-06-17T10:22:28.162Z,39.09
2023-06-17T10:25:11.194Z,40.67
2023-06-17T10:28:06.994Z,39.27
2023-06-17T10:30:36.120Z,39.65
2023-06-17T10:33:06.104Z,37.08
2023-06-17T10:35:45.759Z,34.52
2023-06-17T10:38:32.190Z,39.10
2023-06-17T10:41:13.069Z,40.41
2023-06-17T10:43:42.776Z,37.41
2023-06-17T10:46:12.124Z,40.28
2023-06-17T10:48:40.164Z,36.68
2023-06-17T10:51:12.694Z,36.14
2023-06-17T10:53:49.198Z,34.53
2023-06-17T10:56:17.660Z,37.08
2023-06-17T10:58:48.604Z,35.91
2023-06-17T11:01:16.631Z,35.59
2023-06-17T11:03:46.205Z,34.10
2023-06-17T11:06:14.918Z,35.91
2023-06-17T11:08:43.165Z,34.47
2023-06-17T11:11:28.160Z,36.08
2023-06-17T11:13:56.453Z,39.88
2023-06-17T11:16:36.936Z,33.92
2023-06-17T11:19:05.101Z,33.14
2023-06-17T11:21:33.691Z,33.25
2023-06-17T11:24:14.981Z,34.28
2023-06-17T11:26:44.401Z,32.71
2023-06-17T11:29:13.321Z,32.34
2023-06-17T11:31:53.593Z,32.64
2023-06-17T11:34:24.313Z,33.09
2023-06-17T11:36:54.708Z,35.16
2023-06-17T11:39:32.780Z,33.48
2023-06-17T11:42:04.741Z,34.62
2023-06-17T11:44:35.042Z,32.47
2023-06-17T11:47:07.148Z,31.89
2023-06-17T11:49:36.480Z,30.30
2023-06-17T11:52:15.456Z,30.75
2023-06-17T11:55:00.513Z,32.33
2023-06-17T11:57:32.147Z,33.11
2023-06-17T12:00:04.976Z,32.29
2023-06-17T12:02:55.918Z,32.16
2023-06-17T12:05:28.611Z,33.73
2023-06-17T12:08:03.130Z,32.34
2023-06-17T12:10:39.606Z,30.87
2023-06-17T12:13:25.870Z,30.47
2023-06-17T12:16:13.346Z,29.92
2023-06-17T12:18:52.313Z,30.67
2023-06-17T12:21:25.286Z,31.15
2023-06-17T12:23:55.927Z,31.03
2023-06-17T12:26:37.075Z,31.39
2023-06-17T12:29:15.777Z,30.48
2023-06-17T12:31:52.780Z,30.74
2023-06-17T12:34:21.166Z,30.12
2023-06-17T12:36:49.037Z,28.72
2023-06-17T12:39:16.989Z,29.81
2023-06-17T12:41:57.385Z,29.26
2023-06-17T12:44:37.770Z,30.11
2023-06-17T12:47:07.094Z,30.56
2023-06-17T12:49:47.415Z,31.31
2023-06-17T12:52:16.008Z,32.73
2023-06-17T12:54:47.927Z,33.48
2023-06-17T12:57:16.629Z,33.50
2023-06-17T12:59:44.478Z,33.95
2023-06-17T13:02:12.632Z,33.36
2023-06-17T13:04:41.130Z,33.78
2023-06-17T13:07:09.302Z,34.46
2023-06-17T13:09:37.680Z,35.59
2023-06-17T13:12:06.816Z,36.63
2023-06-17T13:14:35.909Z,37.09
2023-06-17T13:17:04.043Z,37.38
2023-06-17T13:19:32.573Z,37.75
2023-06-17T13:22:00.705Z,37.98
2023-06-17T13:24:29.105Z,37.94
2023-06-17T13:26:58.154Z,35.99
2023-06-17T13:29:26.198Z,34.08
2023-06-17T13:31:54.337Z,32.19
2023-06-17T13:34:23.799Z,31.26
2023-06-17T13:36:51.750Z,31.12
2023-06-17T13:39:19.850Z,30.52
2023-06-17T13:41:48.692Z,31.36
2023-06-17T13:44:17.229Z,33.12
2023-06-17T13:46:45.808Z,34.67
2023-06-17T13:49:17.757Z,35.09
2023-06-17T13:51:46.657Z,36.03
2023-06-17T13:54:19.889Z,36.68
2023-06-17T13:56:49.918Z,37.40
2023-06-17T13:59:18.651Z,37.99
2023-06-17T14:01:48.428Z,38.43
2023-06-17T14:04:17.391Z,38.31
2023-06-17T14:06:47.608Z,38.19
2023-06-17T14:09:15.987Z,37.68
2023-06-17T14:11:44.442Z,34.78
2023-06-17T14:14:12.591Z,33.01
2023-06-17T14:16:40.797Z,31.46
2023-06-17T14:19:09.300Z,31.54
2023-06-17T14:21:38.022Z,31.39
2023-06-17T14:24:10.851Z,31.16
2023-06-17T14:26:44.660Z,31.57
2023-06-17T14:29:12.881Z,32.95
2023-06-17T14:31:41.273Z,32.42
2023-06-17T14:34:09.856Z,32.36
2023-06-17T14:36:38.019Z,31.62
2023-06-17T14:39:07.409Z,30.84
2023-06-17T14:41:37.828Z,30.52
2023-06-17T14:44:06.460Z,30.10
2023-06-17T14:46:34.597Z,29.79
2023-06-17T14:49:02.709Z,29.72
2023-06-17T14:51:45.991Z,30.10
2023-06-17T14:54:14.309Z,29.01
2023-06-17T14:56:42.807Z,28.39
2023-06-17T14:59:11.697Z,28.29
2023-06-17T15:01:43.101Z,28.81
2023-06-17T15:04:15.025Z,28.29
2023-06-17T15:06:43.305Z,29.11
2023-06-17T15:09:34.514Z,28.16
2023-06-17T15:12:13.807Z,28.70
2023-06-17T15:14:43.996Z,29.19
2023-06-17T15:17:15.320Z,29.06
2023-06-17T15:19:45.626Z,28.89
2023-06-17T15:22:14.213Z,29.53
2023-06-17T15:24:42.276Z,29.61
2023-06-17T15:27:10.859Z,29.42
2023-06-17T15:29:38.872Z,29.64
2023-06-17T15:32:07.402Z,30.42
2023-06-17T15:34:36.000Z,31.02
2023-06-17T15:37:04.352Z,31.38
2023-06-17T15:39:36.353Z,32.35
2023-06-17T15:42:05.146Z,32.76
2023-06-17T15:44:33.040Z,33.27
2023-06-17T15:47:01.160Z,32.17
2023-06-17T15:49:29.772Z,33.32
2023-06-17T15:51:57.893Z,32.61
2023-06-17T15:54:29.854Z,31.78
2023-06-17T15:56:58.474Z,30.97
2023-06-17T15:59:27.543Z,29.85
2023-06-17T16:01:55.764Z,29.07
2023-06-17T16:04:35.069Z,28.46
2023-06-17T16:07:09.816Z,27.87
2023-06-17T16:09:41.943Z,27.27
2023-06-17T16:12:13.117Z,26.69
2023-06-17T16:14:45.754Z,26.32
2023-06-17T16:17:13.854Z,26.50
2023-06-17T16:19:42.382Z,25.89
2023-06-17T16:22:11.975Z,26.04
2023-06-17T16:24:43.111Z,26.28
2023-06-17T16:27:12.388Z,26.30
2023-06-17T16:29:41.082Z,25.57
2023-06-17T16:32:09.579Z,25.51
2023-06-17T16:34:38.570Z,25.26
2023-06-17T16:37:07.081Z,25.12
2023-06-17T16:39:35.678Z,25.51
2023-06-17T16:42:07.361Z,25.63
2023-06-17T16:44:39.159Z,26.35
2023-06-17T16:47:07.955Z,26.22
2023-06-17T16:49:37.087Z,26.12
2023-06-17T16:52:05.496Z,26.61
2023-06-17T16:54:33.993Z,25.54
2023-06-17T16:57:02.451Z,25.15
2023-06-17T16:59:30.584Z,24.57
2023-06-17T17:02:02.094Z,24.30
2023-06-17T17:04:30.191Z,24.23
2023-06-17T17:06:58.204Z,24.24
2023-06-17T17:09:27.227Z,24.37
2023-06-17T17:11:56.299Z,23.80
2023-06-17T17:14:24.755Z,24.13
2023-06-17T17:16:53.289Z,23.32
2023-06-17T17:19:36.892Z,23.89
2023-06-17T17:22:08.568Z,23.28
2023-06-17T17:24:40.231Z,23.46
2023-06-17T17:27:13.176Z,23.44
2023-06-17T17:29:42.940Z,22.74
2023-06-17T17:32:11.397Z,23.83
2023-06-17T17:34:42.444Z,23.79
2023-06-17T17:37:10.800Z,22.30
2023-06-17T17:39:39.371Z,22.69
2023-06-17T17:42:07.849Z,22.60
2023-06-17T17:44:36.004Z,22.53
2023-06-17T17:47:04.715Z,23.25
2023-06-17T17:49:32.871Z,22.75
2023-06-17T17:52:02.354Z,22.91
2023-06-17T17:54:32.943Z,22.75
2023-06-17T17:57:14.399Z,23.04
2023-06-17T17:59:45.827Z,22.28
2023-06-17T18:02:15.184Z,21.85
2023-06-17T18:04:43.695Z,21.44
2023-06-17T18:07:13.089Z,21.23
2023-06-17T18:09:41.320Z,21.78
2023-06-17T18:12:10.240Z,21.91
2023-06-17T18:14:38.518Z,21.12
2023-06-17T18:17:06.825Z,21.24
2023-06-17T18:19:35.433Z,21.61
2023-06-17T18:22:03.873Z,21.91
2023-06-17T18:24:35.182Z,21.99
2023-06-17T18:27:04.255Z,21.41
2023-06-17T18:29:32.628Z,21.08
2023-06-17T18:32:00.918Z,21.08
2023-06-17T18:34:29.474Z,21.63
2023-06-17T18:36:57.608Z,21.62
2023-06-17T18:39:25.814Z,21.24
2023-06-17T18:41:54.430Z,20.89
2023-06-17T18:44:22.745Z,20.47
2023-06-17T18:46:51.078Z,21.00
2023-06-17T18:49:26.062Z,20.50
2023-06-17T18:51:54.690Z,20.25
2023-06-17T18:54:24.163Z,20.67
2023-06-17T18:56:52.321Z,20.12
2023-06-17T18:59:23.233Z,20.02
2023-06-17T19:01:51.860Z,19.94
2023-06-17T19:04:20.020Z,19.92
2023-06-17T19:06:48.158Z,20.81
2023-06-17T19:09:16.655Z,20.10
2023-06-17T19:11:44.856Z,20.03
2023-06-17T19:14:13.124Z,19.36
2023-06-17T19:16:43.518Z,19.96
2023-06-17T19:19:11.844Z,20.01
2023-06-17T19:21:39.995Z,19.68
2023-06-17T19:24:08.550Z,20.12
2023-06-17T19:26:36.953Z,19.47
2023-06-17T19:29:05.140Z,19.88
2023-06-17T19:31:33.997Z,19.57
2023-06-17T19:34:02.790Z,19.84
2023-06-17T19:36:32.143Z,20.11
2023-06-17T19:39:00.838Z,20.00
2023-06-17T19:41:31.126Z,20.33
2023-06-17T19:43:59.327Z,19.92
2023-06-17T19:46:28.431Z,19.53
2023-06-17T19:48:56.688Z,20.06
2023-06-17T19:51:25.391Z,18.71
2023-06-17T19:53:53.840Z,18.93
2023-06-17T19:56:22.123Z,19.40
2023-06-17T19:58:50.457Z,18.91
2023-06-17T20:01:20.219Z,18.52
2023-06-17T20:03:48.871Z,18.35
2023-06-17T20:06:17.297Z,18.92
2023-06-17T20:08:45.633Z,19.23
2023-06-17T20:11:14.105Z,18.07
2023-06-17T20:13:41.998Z,18.35
2023-06-17T20:16:22.082Z,18.74
2023-06-17T20:18:53.443Z,17.79
2023-06-17T20:21:22.568Z,18.48
2023-06-17T20:23:51.334Z,17.72
2023-06-17T20:26:19.391Z,17.63
2023-06-17T20:28:47.539Z,17.86
2023-06-17T20:31:16.165Z,17.42
2023-06-17T20:33:45.888Z,18.14
2023-06-17T20:36:14.140Z,18.35
2023-06-17T20:38:46.032Z,18.38
2023-06-17T20:41:14.285Z,18.06
2023-06-17T20:43:45.758Z,18.08
2023-06-17T20:46:13.949Z,17.24
2023-06-17T20:48:42.451Z,17.95
2023-06-17T20:51:11.658Z,17.75
2023-06-17T20:53:39.586Z,17.38
2023-06-17T20:56:08.077Z,18.27
2023-06-17T20:58:36.050Z,17.70
2023-06-17T21:01:04.798Z,17.68
2023-06-17T21:03:33.418Z,17.45
2023-06-17T21:06:01.917Z,17.22
2023-06-17T21:08:33.501Z,17.13
2023-06-17T21:11:01.601Z,17.86
2023-06-17T21:13:29.816Z,17.90
2023-06-17T21:15:58.295Z,17.17
2023-06-17T21:18:28.351Z,17.64
2023-06-17T21:20:56.387Z,17.32
2023-06-17T21:23:24.871Z,17.08
2023-06-17T21:25:52.951Z,17.38
2023-06-17T21:28:20.912Z,17.45
2023-06-17T21:30:49.335Z,17.43
2023-06-17T21:33:17.374Z,17.16
2023-06-17T21:35:45.338Z,17.14
2023-06-17T21:38:13.803Z,16.43
2023-06-17T21:40:41.999Z,17.06
2023-06-17T21:43:10.175Z,16.32
2023-06-17T21:45:41.999Z,16.36
2023-06-17T21:48:10.102Z,16.09
2023-06-17T21:50:45.114Z,15.93
2023-06-17T21:53:15.002Z,15.75
2023-06-17T21:55:46.644Z,16.29
2023-06-17T21:58:14.667Z,16.13
2023-06-17T22:00:45.875Z,15.64
2023-06-17T22:03:14.439Z,15.87
2023-06-17T22:05:42.497Z,15.82
2023-06-17T22:08:10.898Z,15.89
2023-06-17T22:10:39.198Z,15.65
2023-06-17T22:13:07.143Z,15.86
2023-06-17T22:15:35.086Z,15.22
2023-06-17T22:18:03.556Z,15.80
2023-06-17T22:20:31.697Z,15.18
2023-06-17T22:23:02.575Z,15.07
2023-06-17T22:25:31.344Z,14.99
2023-06-17T22:27:59.859Z,15.33
2023-06-17T22:30:27.685Z,15.28
2023-06-17T22:32:56.181Z,15.37
2023-06-17T22:35:24.127Z,15.50
2023-06-17T22:37:52.223Z,15.27
2023-06-17T22:40:21.300Z,15.13
2023-06-17T22:42:49.975Z,15.45
2023-06-17T22:45:17.894Z,14.83
2023-06-17T22:47:46.304Z,14.88
2023-06-17T22:50:17.119Z,14.36
2023-06-17T22:52:49.436Z,14.51
2023-06-17T22:55:17.986Z,14.53
2023-06-17T22:57:50.398Z,14.52
2023-06-17T23:00:19.735Z,14.61
2023-06-17T23:02:48.021Z,14.41
2023-06-17T23:05:16.101Z,14.28
2023-06-17T23:07:47.454Z,14.39
2023-06-17T23:10:15.388Z,14.52
2023-06-17T23:12:43.387Z,14.40
2023-06-17T23:15:14.867Z,14.28
2023-06-17T23:17:42.730Z,14.45
2023-06-17T23:20:11.002Z,14.06
2023-06-17T23:22:39.235Z,14.51
2023-06-17T23:25:08.458Z,15.04
2023-06-17T23:27:41.890Z,14.20
2023-06-17T23:30:11.643Z,14.38
2023-06-17T23:32:42.884Z,14.22
2023-06-17T23:35:11.236Z,14.00
2023-06-17T23:37:42.119Z,14.11
2023-06-17T23:40:10.899Z,14.83
2023-06-17T23:42:39.595Z,14.65
2023-06-17T23:45:09.608Z,13.80
2023-06-17T23:47:37.734Z,14.01
2023-06-17T23:50:06.539Z,14.80
2023-06-17T23:52:34.378Z,14.10
2023-06-17T23:55:02.791Z,14.02
2023-06-17T23:57:33.242Z,14.33
